Time;durP1;ratioP1;P1;durP2;ratioP2;P2;SDS_P1;SDS_P2;PMS_P1;PMS_P2;Temp;Humidity;BMP_temperature;BMP_pressure;BME280_temperature;BME280_humidity;BME280_pressure;Samples;Min_cycle;Max_cycle;Signal;HPM_P1;HPM_P2
2022/04/24 00:01:27;;;;;;;13.83;9.87;;;;;;;;;;5070225;28;20055;-61
2022/04/24 00:03:53;;;;;;;15.77;9.67;;;;;;;;;;5071233;28;20049;-61
2022/04/24 00:06:19;;;;;;;14.50;10.33;;;;;;;;;;5070468;28;20127;-61
2022/04/24 00:08:45;;;;;;;15.83;10.63;;;;;;;;;;5070306;28;20131;-61
2022/04/24 00:11:11;;;;;;;14.57;10.23;;;;;;;;;;5068444;28;20085;-61
2022/04/24 00:13:40;;;;;;;13.43;9.80;;;;;;;;;;5070084;28;20049;-60
2022/04/24 00:16:06;;;;;;;13.37;9.17;;;;;;;;;;5067501;28;20866;-60
2022/04/24 00:18:32;;;;;;;19.73;10.73;;;;;;;;;;5065999;28;20590;-60
2022/04/24 00:20:59;;;;;;;15.03;9.07;;;;;;;;;;5070136;28;20570;-61
2022/04/24 00:23:25;;;;;;;14.43;9.70;;;;;;;;;;5067600;28;20538;-60
2022/04/24 00:25:50;;;;;;;18.73;9.90;;;;;;;;;;5070517;28;20036;-60
2022/04/24 00:28:17;;;;;;;14.90;9.53;;;;;;;;;;5070724;28;20044;-61
2022/04/24 00:30:43;;;;;;;19.10;11.60;;;;;;;;;;5072330;28;20039;-61
2022/04/24 00:33:09;;;;;;;17.30;10.03;;;;;;;;;;5060515;28;20036;-61
2022/04/24 00:35:35;;;;;;;12.10;8.70;;;;;;;;;;5070421;28;20388;-61
2022/04/24 00:38:01;;;;;;;15.33;9.50;;;;;;;;;;5069173;28;20056;-61
2022/04/24 00:40:27;;;;;;;14.37;8.90;;;;;;;;;;5070354;28;20060;-61
2022/04/24 00:42:53;;;;;;;15.87;9.87;;;;;;;;;;5068136;28;20043;-61
2022/04/24 00:45:19;;;;;;;12.03;8.87;;;;;;;;;;5063122;28;20055;-61
2022/04/24 00:47:45;;;;;;;13.00;9.37;;;;;;;;;;5070124;28;20967;-61
2022/04/24 00:50:11;;;;;;;13.47;8.70;;;;;;;;;;5070006;28;20169;-61
2022/04/24 00:52:38;;;;;;;14.10;9.40;;;;;;;;;;5068699;28;20068;-61
2022/04/24 00:55:07;;;;;;;13.13;10.10;;;;;;;;;;5050517;28;20053;-61
2022/04/24 00:57:33;;;;;;;11.83;8.77;;;;;;;;;;5065327;28;20056;-61
2022/04/24 00:59:59;;;;;;;14.93;8.40;;;;;;;;;;5069316;28;20105;-61
2022/04/24 01:02:26;;;;;;;12.13;9.03;;;;;;;;;;5070011;28;20048;-61
2022/04/24 01:04:52;;;;;;;14.20;9.10;;;;;;;;;;5069360;28;20132;-61
2022/04/24 01:07:18;;;;;;;13.17;8.73;;;;;;;;;;5069927;28;20135;-61
2022/04/24 01:09:44;;;;;;;13.20;9.07;;;;;;;;;;5069217;28;20148;-61
2022/04/24 01:12:10;;;;;;;12.80;9.17;;;;;;;;;;5070247;28;20472;-61
2022/04/24 01:14:36;;;;;;;14.63;9.23;;;;;;;;;;5069376;28;20131;-61
2022/04/24 01:17:04;;;;;;;14.50;8.80;;;;;;;;;;5069160;28;20102;-61
2022/04/24 01:19:30;;;;;;;12.27;8.70;;;;;;;;;;5068502;28;20051;-62
2022/04/24 01:21:56;;;;;;;11.50;9.10;;;;;;;;;;5069826;28;20041;-61
2022/04/24 01:24:25;;;;;;;15.27;9.00;;;;;;;;;;5068800;28;20045;-62
2022/04/24 01:26:51;;;;;;;12.40;8.23;;;;;;;;;;5069530;28;20063;-61
2022/04/24 01:29:17;;;;;;;13.43;9.03;;;;;;;;;;5067461;28;20049;-61
2022/04/24 01:31:50;;;;;;;14.83;9.53;;;;;;;;;;5068616;28;20048;-62
2022/04/24 01:34:17;;;;;;;15.50;9.40;;;;;;;;;;5073067;28;20044;-61
2022/04/24 01:36:43;;;;;;;12.70;9.17;;;;;;;;;;5072298;28;20278;-61
2022/04/24 01:39:09;;;;;;;12.97;8.40;;;;;;;;;;5076565;28;20395;-61
2022/04/24 01:41:35;;;;;;;14.23;8.47;;;;;;;;;;5072376;28;20044;-61
2022/04/24 01:44:01;;;;;;;11.07;8.10;;;;;;;;;;5062297;28;20091;-61
2022/04/24 01:46:27;;;;;;;10.63;8.43;;;;;;;;;;5073924;28;20882;-60
2022/04/24 01:48:53;;;;;;;13.97;9.03;;;;;;;;;;5079227;28;20119;-60
2022/04/24 01:51:20;;;;;;;15.60;8.67;;;;;;;;;;5071453;28;20044;-61
2022/04/24 01:53:46;;;;;;;12.13;8.83;;;;;;;;;;5075540;28;20068;-60
2022/04/24 01:56:13;;;;;;;13.13;9.43;;;;;;;;;;5068990;28;20046;-60
2022/04/24 01:58:39;;;;;;;13.87;8.87;;;;;;;;;;5072189;28;20040;-61
2022/04/24 02:01:06;;;;;;;11.50;8.60;;;;;;;;;;5070210;28;20052;-61
2022/04/24 02:03:32;;;;;;;17.07;10.07;;;;;;;;;;5066668;28;20044;-61
2022/04/24 02:05:58;;;;;;;13.57;9.13;;;;;;;;;;5071675;28;20044;-61
2022/04/24 02:08:25;;;;;;;12.90;9.60;;;;;;;;;;5071771;28;20071;-61
2022/04/24 02:10:51;;;;;;;13.83;9.30;;;;;;;;;;5070834;28;20550;-61
2022/04/24 02:13:17;;;;;;;16.00;9.47;;;;;;;;;;5068755;28;20196;-60
2022/04/24 02:15:43;;;;;;;13.83;8.70;;;;;;;;;;5067686;28;20072;-60
2022/04/24 02:18:10;;;;;;;13.23;9.70;;;;;;;;;;5074913;28;20123;-61
2022/04/24 02:20:36;;;;;;;13.47;9.67;;;;;;;;;;5071110;28;20048;-60
2022/04/24 02:23:02;;;;;;;12.90;9.03;;;;;;;;;;5071347;28;20050;-61
2022/04/24 02:25:29;;;;;;;14.00;9.37;;;;;;;;;;5071346;28;20550;-61
2022/04/24 02:27:55;;;;;;;14.53;9.23;;;;;;;;;;5071532;28;20036;-61
2022/04/24 02:30:22;;;;;;;12.37;9.57;;;;;;;;;;5070533;28;20044;-61
2022/04/24 02:32:48;;;;;;;15.80;9.97;;;;;;;;;;5070011;28;20075;-60
2022/04/24 02:35:14;;;;;;;15.20;10.63;;;;;;;;;;5073915;28;20037;-61
2022/04/24 02:37:40;;;;;;;15.93;10.23;;;;;;;;;;5072886;28;20052;-61
2022/04/24 02:40:10;;;;;;;17.77;9.90;;;;;;;;;;5070443;28;20129;-61
2022/04/24 02:42:39;;;;;;;13.80;10.50;;;;;;;;;;5074080;28;20059;-61
2022/04/24 02:45:08;;;;;;;13.93;10.60;;;;;;;;;;5072720;28;20093;-61
2022/04/24 02:47:35;;;;;;;14.10;10.07;;;;;;;;;;5072750;28;20170;-61
2022/04/24 02:50:01;;;;;;;16.43;10.87;;;;;;;;;;5071997;28;20037;-61
2022/04/24 02:52:27;;;;;;;13.80;9.90;;;;;;;;;;5070526;28;20050;-61
2022/04/24 02:54:54;;;;;;;17.33;10.40;;;;;;;;;;5070631;28;20117;-61
2022/04/24 02:57:20;;;;;;;18.37;11.57;;;;;;;;;;5069515;28;20056;-61
2022/04/24 02:59:49;;;;;;;15.37;10.13;;;;;;;;;;5072779;28;20055;-61
2022/04/24 03:02:15;;;;;;;13.07;10.00;;;;;;;;;;5072333;28;20084;-61
2022/04/24 03:04:41;;;;;;;16.97;9.53;;;;;;;;;;5071215;28;20055;-61
2022/04/24 03:07:07;;;;;;;15.17;9.90;;;;;;;;;;5071044;28;20040;-61
2022/04/24 03:09:34;;;;;;;16.47;10.17;;;;;;;;;;5071257;28;20529;-61
2022/04/24 03:12:00;;;;;;;14.53;10.30;;;;;;;;;;5070005;28;20124;-61
2022/04/24 03:14:26;;;;;;;16.63;10.10;;;;;;;;;;5070914;28;20498;-61
2022/04/24 03:16:52;;;;;;;12.63;9.60;;;;;;;;;;5069226;28;20498;-61
2022/04/24 03:19:18;;;;;;;16.27;10.27;;;;;;;;;;5068496;28;20040;-61
2022/04/24 03:21:44;;;;;;;14.27;9.63;;;;;;;;;;5070488;28;20122;-61
2022/04/24 03:24:10;;;;;;;15.10;9.60;;;;;;;;;;5070033;28;20182;-61
2022/04/24 03:26:36;;;;;;;14.57;10.33;;;;;;;;;;5061420;28;20048;-61
2022/04/24 03:29:02;;;;;;;15.23;9.97;;;;;;;;;;5070086;28;20486;-61
2022/04/24 03:31:28;;;;;;;15.70;9.53;;;;;;;;;;5069920;28;20040;-61
2022/04/24 03:33:55;;;;;;;14.23;10.30;;;;;;;;;;5067131;28;20041;-64
2022/04/24 03:36:21;;;;;;;17.03;9.13;;;;;;;;;;5068130;28;20545;-61
2022/04/24 03:38:47;;;;;;;15.13;8.93;;;;;;;;;;5066830;28;20067;-62
2022/04/24 03:41:13;;;;;;;13.70;9.63;;;;;;;;;;5073403;28;20052;-61
2022/04/24 03:43:39;;;;;;;12.60;9.63;;;;;;;;;;5077361;28;20040;-61
2022/04/24 03:46:06;;;;;;;15.13;10.40;;;;;;;;;;5075639;28;20044;-61
2022/04/24 03:48:32;;;;;;;14.67;10.20;;;;;;;;;;5076033;28;20108;-61
2022/04/24 03:50:58;;;;;;;14.83;10.40;;;;;;;;;;5073402;28;20468;-61
2022/04/24 03:53:24;;;;;;;11.37;8.00;;;;;;;;;;5069296;28;20490;-61
2022/04/24 03:55:50;;;;;;;11.97;8.90;;;;;;;;;;5070980;28;20395;-61
2022/04/24 03:58:16;;;;;;;14.53;9.70;;;;;;;;;;5073551;28;20052;-61
2022/04/24 04:00:42;;;;;;;11.43;8.90;;;;;;;;;;5070675;28;20070;-61
2022/04/24 04:03:08;;;;;;;15.03;8.87;;;;;;;;;;5073903;28;20040;-61
2022/04/24 04:05:37;;;;;;;14.13;9.60;;;;;;;;;;5072468;28;20044;-61
2022/04/24 04:08:03;;;;;;;11.27;8.70;;;;;;;;;;5071673;28;20417;-61
2022/04/24 04:10:30;;;;;;;12.93;8.90;;;;;;;;;;5072304;28;20130;-61
2022/04/24 04:12:56;;;;;;;14.73;9.70;;;;;;;;;;5073806;28;20560;-61
2022/04/24 04:15:22;;;;;;;13.27;7.90;;;;;;;;;;5074012;28;20049;-61
2022/04/24 04:17:48;;;;;;;13.17;9.40;;;;;;;;;;5073869;28;20066;-61
2022/04/24 04:20:14;;;;;;;13.77;8.87;;;;;;;;;;5071159;28;20041;-61
2022/04/24 04:22:48;;;;;;;12.43;8.30;;;;;;;;;;5071013;28;20041;-61
2022/04/24 04:25:14;;;;;;;15.03;9.43;;;;;;;;;;5070515;28;20640;-61
2022/04/24 04:27:40;;;;;;;14.77;9.63;;;;;;;;;;5073773;28;20101;-61
2022/04/24 04:30:07;;;;;;;14.57;9.90;;;;;;;;;;5074674;28;20541;-61
2022/04/24 04:32:35;;;;;;;13.57;8.77;;;;;;;;;;5077524;28;20036;-62
2022/04/24 04:35:01;;;;;;;13.90;9.43;;;;;;;;;;5076958;28;20048;-62
2022/04/24 04:37:27;;;;;;;12.40;8.87;;;;;;;;;;5072168;28;20075;-61
2022/04/24 04:39:53;;;;;;;15.43;9.77;;;;;;;;;;5075412;28;20072;-62
2022/04/24 04:42:19;;;;;;;13.20;9.80;;;;;;;;;;5076025;28;20091;-62
2022/04/24 04:44:45;;;;;;;13.83;9.50;;;;;;;;;;5076730;28;20470;-61
2022/04/24 04:47:11;;;;;;;15.23;10.10;;;;;;;;;;5074330;28;20047;-61
2022/04/24 04:49:37;;;;;;;14.53;9.80;;;;;;;;;;5077913;28;20048;-62
2022/04/24 04:52:03;;;;;;;13.70;9.20;;;;;;;;;;5070159;28;20047;-61
2022/04/24 04:54:29;;;;;;;11.97;9.23;;;;;;;;;;5066429;28;20052;-61
2022/04/24 04:56:55;;;;;;;13.93;9.33;;;;;;;;;;5068290;28;20098;-61
2022/04/24 04:59:21;;;;;;;17.00;9.87;;;;;;;;;;5068571;28;20140;-61
2022/04/24 05:01:47;;;;;;;12.33;9.20;;;;;;;;;;5069448;28;20036;-61
2022/04/24 05:04:13;;;;;;;13.00;9.80;;;;;;;;;;5070320;28;20040;-62
2022/04/24 05:06:39;;;;;;;14.87;9.87;;;;;;;;;;5069123;28;20040;-62
2022/04/24 05:09:05;;;;;;;12.73;9.60;;;;;;;;;;5070336;28;20067;-62
2022/04/24 05:11:31;;;;;;;13.40;9.67;;;;;;;;;;5065638;28;20128;-62
2022/04/24 05:13:57;;;;;;;14.37;9.57;;;;;;;;;;5070316;28;20040;-62
2022/04/24 05:16:23;;;;;;;15.20;8.77;;;;;;;;;;5060126;28;20570;-61
2022/04/24 05:18:49;;;;;;;14.93;9.97;;;;;;;;;;5069705;28;20132;-62
2022/04/24 05:21:17;;;;;;;11.43;8.47;;;;;;;;;;5069235;28;20063;-62
2022/04/24 05:23:45;;;;;;;12.43;9.10;;;;;;;;;;5066879;28;20044;-63
2022/04/24 05:26:12;;;;;;;15.60;9.70;;;;;;;;;;5064084;28;20044;-61
2022/04/24 05:28:38;;;;;;;12.33;8.70;;;;;;;;;;5075537;28;20397;-62
2022/04/24 05:31:05;;;;;;;17.80;9.30;;;;;;;;;;5068477;28;20048;-62
2022/04/24 05:33:32;;;;;;;13.60;9.13;;;;;;;;;;5068345;28;20048;-61
2022/04/24 05:35:58;;;;;;;12.47;8.80;;;;;;;;;;5068498;28;20188;-62
2022/04/24 05:38:24;;;;;;;11.13;9.03;;;;;;;;;;5067919;28;20148;-62
2022/04/24 05:40:50;;;;;;;11.77;8.40;;;;;;;;;;5067853;28;20098;-62
2022/04/24 05:43:16;;;;;;;13.67;9.17;;;;;;;;;;5067541;28;21298;-62
2022/04/24 05:45:42;;;;;;;11.63;8.03;;;;;;;;;;5067185;28;20540;-62
2022/04/24 05:48:08;;;;;;;17.00;9.13;;;;;;;;;;5068614;28;20422;-62
2022/04/24 05:50:34;;;;;;;12.03;8.20;;;;;;;;;;5067723;28;20083;-62
2022/04/24 05:53:02;;;;;;;11.00;7.97;;;;;;;;;;5068073;28;20048;-62
2022/04/24 05:55:28;;;;;;;11.90;8.43;;;;;;;;;;5067375;28;20095;-62
2022/04/24 05:57:54;;;;;;;13.33;9.83;;;;;;;;;;5067164;28;20115;-62
2022/04/24 06:00:21;;;;;;;10.97;8.17;;;;;;;;;;5067920;28;20608;-62
2022/04/24 06:02:47;;;;;;;11.60;8.33;;;;;;;;;;5068153;28;20036;-61
2022/04/24 06:05:13;;;;;;;10.87;7.93;;;;;;;;;;5067057;28;20040;-62
2022/04/24 06:07:40;;;;;;;10.23;8.00;;;;;;;;;;5067305;28;20135;-62
2022/04/24 06:10:07;;;;;;;10.60;7.80;;;;;;;;;;5067755;28;20158;-62
2022/04/24 06:12:43;;;;;;;24.30;9.63;;;;;;;;;;5065583;28;20095;-62
2022/04/24 06:15:13;;;;;;;12.17;7.83;;;;;;;;;;5067308;28;20040;-62
2022/04/24 06:17:39;;;;;;;12.80;7.60;;;;;;;;;;5065331;28;20045;-62
2022/04/24 06:20:06;;;;;;;12.77;7.97;;;;;;;;;;5065899;28;20482;-61
2022/04/24 06:22:41;;;;;;;13.87;7.37;;;;;;;;;;5064599;28;20062;-62
2022/04/24 06:25:07;;;;;;;10.53;7.03;;;;;;;;;;5066385;28;20794;-62
2022/04/24 06:27:33;;;;;;;10.13;6.93;;;;;;;;;;5066725;28;20079;-61
2022/04/24 06:29:59;;;;;;;9.87;6.63;;;;;;;;;;5066759;28;20072;-62
2022/04/24 06:32:29;;;;;;;11.03;7.63;;;;;;;;;;5066680;28;20092;-62
2022/04/24 06:34:54;;;;;;;9.40;7.00;;;;;;;;;;5065833;28;20040;-61
2022/04/24 06:37:20;;;;;;;8.77;5.93;;;;;;;;;;5067034;28;20063;-61
2022/04/24 06:39:46;;;;;;;11.87;6.97;;;;;;;;;;5066749;28;20041;-62
2022/04/24 06:42:13;;;;;;;9.00;6.70;;;;;;;;;;5067028;28;20036;-62
2022/04/24 06:44:39;;;;;;;9.27;6.30;;;;;;;;;;5065459;28;20491;-62
2022/04/24 06:47:05;;;;;;;11.30;7.40;;;;;;;;;;5065851;28;20039;-62
2022/04/24 06:49:31;;;;;;;9.67;6.47;;;;;;;;;;5065074;28;20036;-62
2022/04/24 06:51:57;;;;;;;9.90;7.20;;;;;;;;;;5066285;28;20044;-61
2022/04/24 06:54:23;;;;;;;12.20;6.53;;;;;;;;;;5066562;28;20076;-63
2022/04/24 06:56:49;;;;;;;11.30;7.47;;;;;;;;;;5066906;28;20044;-62
2022/04/24 06:59:15;;;;;;;10.50;7.03;;;;;;;;;;5066104;28;20135;-62
2022/04/24 07:01:41;;;;;;;11.83;7.10;;;;;;;;;;5067174;28;20478;-62
2022/04/24 07:04:07;;;;;;;11.23;7.60;;;;;;;;;;5066162;28;20040;-63
2022/04/24 07:06:33;;;;;;;10.40;7.13;;;;;;;;;;5065511;28;20557;-62
2022/04/24 07:08:59;;;;;;;13.67;6.90;;;;;;;;;;5066493;28;20541;-62
2022/04/24 07:11:25;;;;;;;10.17;6.50;;;;;;;;;;5064727;28;20041;-62
2022/04/24 07:13:51;;;;;;;10.27;6.40;;;;;;;;;;5065702;28;20048;-62
2022/04/24 07:16:17;;;;;;;9.43;6.27;;;;;;;;;;5070150;28;20490;-62
2022/04/24 07:18:43;;;;;;;7.57;5.93;;;;;;;;;;5070156;28;20052;-62
2022/04/24 07:21:09;;;;;;;9.30;5.97;;;;;;;;;;5068626;28;20123;-62
2022/04/24 07:23:37;;;;;;;9.93;6.37;;;;;;;;;;5070256;28;20131;-62
2022/04/24 07:26:03;;;;;;;9.90;6.70;;;;;;;;;;5070872;28;20044;-62
2022/04/24 07:28:31;;;;;;;11.93;6.13;;;;;;;;;;5066412;28;20052;-62
2022/04/24 07:30:57;;;;;;;8.80;6.07;;;;;;;;;;5067303;28;20055;-62
2022/04/24 07:33:23;;;;;;;8.70;5.80;;;;;;;;;;5070848;28;20051;-61
2022/04/24 07:35:49;;;;;;;9.00;6.57;;;;;;;;;;5070488;28;20041;-62
2022/04/24 07:38:15;;;;;;;8.33;5.30;;;;;;;;;;5071307;28;20094;-62
2022/04/24 07:40:42;;;;;;;8.47;5.83;;;;;;;;;;5071327;28;20036;-61
2022/04/24 07:43:08;;;;;;;7.80;5.67;;;;;;;;;;5070242;28;20411;-62
2022/04/24 07:45:42;;;;;;;8.43;5.37;;;;;;;;;;5070440;28;20045;-62
2022/04/24 07:48:08;;;;;;;;;;;;;;;;;;5070789;28;20145;-62
2022/04/24 07:50:36;;;;;;;8.30;5.50;;;;;;;;;;5071423;28;19920;-61
2022/04/24 07:53:02;;;;;;;8.00;5.33;;;;;;;;;;5069833;28;20072;-62
2022/04/24 07:55:29;;;;;;;9.23;5.47;;;;;;;;;;5070437;28;20113;-62
2022/04/24 07:57:57;;;;;;;8.80;5.83;;;;;;;;;;5071231;28;20123;-62
2022/04/24 08:00:24;;;;;;;9.37;5.70;;;;;;;;;;5069541;28;20045;-62
2022/04/24 08:02:57;;;;;;;11.13;6.03;;;;;;;;;;5069788;28;20098;-61
2022/04/24 08:05:40;;;;;;;8.73;4.90;;;;;;;;;;5069424;28;20203;-61
2022/04/24 08:08:10;;;;;;;9.32;5.43;;;;;;;;;;5069174;28;20410;-62
2022/04/24 08:10:37;;;;;;;8.23;4.80;;;;;;;;;;5070329;28;20044;-63
2022/04/24 08:13:04;;;;;;;8.73;5.47;;;;;;;;;;5070280;28;20049;-62
2022/04/24 08:15:31;;;;;;;7.87;5.30;;;;;;;;;;5069518;28;20691;-62
2022/04/24 08:17:57;;;;;;;6.53;4.30;;;;;;;;;;5070305;28;20041;-62
2022/04/24 08:20:23;;;;;;;8.03;4.40;;;;;;;;;;5069471;28;20095;-62
2022/04/24 08:22:50;;;;;;;8.37;4.20;;;;;;;;;;5069712;28;21933;-62
2022/04/24 08:25:18;;;;;;;5.77;4.00;;;;;;;;;;5070517;28;20044;-62
2022/04/24 08:27:44;;;;;;;8.97;5.03;;;;;;;;;;5069824;28;20383;-62
2022/04/24 08:30:11;;;;;;;7.60;3.77;;;;;;;;;;5068642;28;20045;-62
2022/04/24 08:32:37;;;;;;;7.10;3.93;;;;;;;;;;5069990;28;20527;-62
2022/04/24 08:35:04;;;;;;;8.53;4.23;;;;;;;;;;5069866;28;20041;-62
2022/04/24 08:37:30;;;;;;;5.33;3.93;;;;;;;;;;5065619;28;20422;-62
2022/04/24 08:39:56;;;;;;;6.20;3.37;;;;;;;;;;5065395;28;20036;-62
2022/04/24 08:42:22;;;;;;;4.50;3.23;;;;;;;;;;5064468;28;20580;-62
2022/04/24 08:44:52;;;;;;;6.23;3.40;;;;;;;;;;5066231;28;20086;-62
2022/04/24 08:47:18;;;;;;;5.37;3.60;;;;;;;;;;5065705;28;20036;-62
2022/04/24 08:49:45;;;;;;;6.93;3.30;;;;;;;;;;5065810;28;20449;-62
2022/04/24 08:52:11;;;;;;;4.63;3.00;;;;;;;;;;5065095;28;20048;-62
2022/04/24 08:54:41;;;;;;;4.93;3.10;;;;;;;;;;5069059;28;20051;-62
2022/04/24 08:57:08;;;;;;;4.20;2.50;;;;;;;;;;5062086;28;20079;-62
2022/04/24 08:59:34;;;;;;;6.30;3.27;;;;;;;;;;5066580;28;20590;-63
2022/04/24 09:02:00;;;;;;;5.50;2.67;;;;;;;;;;5068751;28;20056;-63
2022/04/24 09:04:27;;;;;;;4.63;2.73;;;;;;;;;;5069862;28;20040;-63
2022/04/24 09:06:59;;;;;;;7.50;3.07;;;;;;;;;;5068898;28;20072;-63
2022/04/24 09:09:25;;;;;;;5.57;2.28;;;;;;;;;;5068945;28;20040;-63
2022/04/24 09:11:52;;;;;;;4.50;2.80;;;;;;;;;;5068855;28;20047;-63
2022/04/24 09:14:19;;;;;;;6.50;2.83;;;;;;;;;;5069613;28;20093;-63
2022/04/24 09:16:49;;;;;;;4.77;2.73;;;;;;;;;;5069107;28;20070;-63
2022/04/24 09:19:22;;;;;;;3.30;2.20;;;;;;;;;;5067233;28;20036;-63
2022/04/24 09:21:52;;;;;;;5.95;2.72;;;;;;;;;;5069515;28;20060;-63
2022/04/24 09:24:18;;;;;;;3.60;2.33;;;;;;;;;;5068044;28;20060;-63
2022/04/24 09:26:55;;;;;;;4.33;2.33;;;;;;;;;;5067940;28;20116;-63
2022/04/24 09:29:24;;;;;;;7.77;2.37;;;;;;;;;;5060640;28;20123;-63
2022/04/24 09:31:51;;;;;;;3.70;1.90;;;;;;;;;;5069497;28;20155;-64
2022/04/24 09:34:18;;;;;;;6.47;2.20;;;;;;;;;;5073746;28;20044;-63
2022/04/24 09:36:45;;;;;;;5.10;1.70;;;;;;;;;;5077922;28;20468;-63
2022/04/24 09:39:11;;;;;;;4.43;1.50;;;;;;;;;;5070276;28;20055;-63
2022/04/24 09:41:38;;;;;;;3.93;1.80;;;;;;;;;;5074887;28;20481;-63
2022/04/24 09:44:11;;;;;;;6.40;1.70;;;;;;;;;;5072733;28;20040;-63
2022/04/24 09:46:37;;;;;;;12.77;3.40;;;;;;;;;;5061244;28;20051;-63
2022/04/24 09:49:04;;;;;;;3.63;1.80;;;;;;;;;;5060424;28;20495;-63
2022/04/24 09:51:30;;;;;;;4.67;1.90;;;;;;;;;;5058766;28;20502;-63
2022/04/24 09:54:00;;;;;;;5.30;1.90;;;;;;;;;;5062082;28;20100;-63
2022/04/24 09:56:27;;;;;;;5.07;1.90;;;;;;;;;;5059751;28;21729;-64
2022/04/24 09:58:53;;;;;;;3.67;2.00;;;;;;;;;;5063438;28;20037;-63
2022/04/24 10:01:22;;;;;;;4.50;2.13;;;;;;;;;;5068201;28;20067;-64
2022/04/24 10:03:49;;;;;;;5.47;2.00;;;;;;;;;;5066650;28;20517;-64
2022/04/24 10:06:17;;;;;;;3.57;1.73;;;;;;;;;;5067788;28;20063;-64
2022/04/24 10:08:43;;;;;;;7.77;2.20;;;;;;;;;;5067627;28;20139;-64
2022/04/24 10:11:09;;;;;;;2.63;1.60;;;;;;;;;;5065741;28;20139;-64
2022/04/24 10:13:37;;;;;;;4.93;2.10;;;;;;;;;;5066536;28;20072;-64
2022/04/24 10:16:22;;;;;;;3.60;2.17;;;;;;;;;;5068693;28;20131;-64
2022/04/24 10:18:55;;;;;;;3.53;2.17;;;;;;;;;;5066677;28;20053;-61
2022/04/24 10:21:30;;;;;;;4.03;3.13;;;;;;;;;;5066251;28;20044;-61
2022/04/24 10:24:06;;;;;;;5.83;2.00;;;;;;;;;;5067055;28;20048;-61
2022/04/24 10:26:32;;;;;;;3.87;1.90;;;;;;;;;;5066484;28;20056;-61
2022/04/24 10:29:03;;;;;;;4.73;2.00;;;;;;;;;;5067413;28;20044;-62
2022/04/24 10:31:40;;;;;;;3.87;2.20;;;;;;;;;;5067092;28;20044;-64
2022/04/24 10:34:06;;;;;;;5.70;2.03;;;;;;;;;;5070839;28;20044;-63
2022/04/24 10:36:32;;;;;;;6.23;2.17;;;;;;;;;;5073056;28;20061;-62
2022/04/24 10:39:00;;;;;;;4.03;2.40;;;;;;;;;;5070745;28;20137;-62
2022/04/24 10:41:29;;;;;;;4.83;2.30;;;;;;;;;;5074965;28;20049;-63
2022/04/24 10:43:57;;;;;;;5.07;2.30;;;;;;;;;;5075351;28;20052;-62
2022/04/24 10:46:26;;;;;;;4.70;2.67;;;;;;;;;;5066349;28;20495;-62
2022/04/24 10:48:53;;;;;;;4.07;2.13;;;;;;;;;;5060088;28;20867;-62
2022/04/24 10:51:28;;;;;;;7.93;2.77;;;;;;;;;;5068214;28;20045;-62
2022/04/24 10:54:00;;;;;;;4.50;2.57;;;;;;;;;;5070958;28;20048;-62
2022/04/24 10:56:26;;;;;;;4.18;2.45;;;;;;;;;;5071390;28;20127;-63
2022/04/24 10:58:53;;;;;;;4.37;2.30;;;;;;;;;;5070824;28;20048;-62
2022/04/24 11:01:19;;;;;;;5.30;2.20;;;;;;;;;;5071072;28;20418;-62
2022/04/24 11:03:46;;;;;;;3.70;2.30;;;;;;;;;;5075176;28;20044;-62
2022/04/24 11:06:23;;;;;;;4.50;2.20;;;;;;;;;;5078391;28;20040;-63
2022/04/24 11:08:49;;;;;;;3.50;1.60;;;;;;;;;;5069534;28;20041;-64
2022/04/24 11:11:15;;;;;;;5.45;2.25;;;;;;;;;;5071175;28;20102;-63
2022/04/24 11:13:42;;;;;;;6.35;1.70;;;;;;;;;;5070614;28;20098;-63
2022/04/24 11:16:08;;;;;;;4.32;2.05;;;;;;;;;;5076159;28;20036;-63
2022/04/24 11:18:35;;;;;;;3.67;1.88;;;;;;;;;;5073644;28;20043;-63
2022/04/24 11:21:03;;;;;;;3.67;1.92;;;;;;;;;;5071834;28;20058;-63
2022/04/24 11:23:30;;;;;;;3.75;2.08;;;;;;;;;;5079796;28;20052;-63
2022/04/24 11:25:58;;;;;;;3.65;1.80;;;;;;;;;;5077723;28;20052;-63
2022/04/24 11:28:37;;;;;;;3.65;1.52;;;;;;;;;;5070326;28;20064;-63
2022/04/24 11:31:09;;;;;;;3.60;1.60;;;;;;;;;;5076175;28;20105;-63
2022/04/24 11:33:38;;;;;;;3.67;1.70;;;;;;;;;;5073831;28;20910;-64
2022/04/24 11:36:05;;;;;;;2.33;1.60;;;;;;;;;;5069788;28;20040;-63
2022/04/24 11:38:32;;;;;;;3.95;2.00;;;;;;;;;;5079462;28;20056;-64
2022/04/24 11:41:03;;;;;;;3.35;1.65;;;;;;;;;;5075600;28;20783;-64
2022/04/24 11:43:29;;;;;;;5.05;1.73;;;;;;;;;;5079902;28;20052;-63
2022/04/24 11:51:26;;;;;;;3.95;1.70;;;;;;;;;;5075334;28;20517;-63
2022/04/24 11:53:54;;;;;;;4.47;1.52;;;;;;;;;;5078702;28;20174;-63
2022/04/24 11:56:20;;;;;;;2.72;1.50;;;;;;;;;;5077784;28;20421;-63
2022/04/24 11:58:46;;;;;;;3.50;1.10;;;;;;;;;;5077714;28;20040;-63
2022/04/24 12:01:18;;;;;;;3.15;1.58;;;;;;;;;;5077233;28;20044;-63
2022/04/24 12:03:44;;;;;;;2.28;1.30;;;;;;;;;;5072122;28;20048;-62
2022/04/24 12:06:11;;;;;;;3.55;1.48;;;;;;;;;;5073279;28;20048;-63
2022/04/24 12:09:03;;;;;;;4.00;1.20;;;;;;;;;;5073681;28;20510;-63
2022/04/24 12:11:30;;;;;;;3.47;1.45;;;;;;;;;;5070760;28;20521;-63
2022/04/24 12:14:03;;;;;;;5.88;1.45;;;;;;;;;;5079575;28;20044;-63
2022/04/24 12:16:29;;;;;;;5.43;2.00;;;;;;;;;;5075642;28;20579;-63
2022/04/24 12:18:59;;;;;;;4.32;1.30;;;;;;;;;;5074365;28;20590;-63
2022/04/24 12:21:26;;;;;;;3.00;1.55;;;;;;;;;;5074875;28;20052;-62
2022/04/24 12:23:53;;;;;;;3.50;1.50;;;;;;;;;;5072843;28;20048;-62
2022/04/24 12:26:20;;;;;;;3.83;1.60;;;;;;;;;;5068434;28;20509;-62
2022/04/24 12:28:47;;;;;;;3.65;1.27;;;;;;;;;;5067974;28;20044;-63
2022/04/24 12:31:23;;;;;;;5.15;1.75;;;;;;;;;;5068349;28;20109;-62
2022/04/24 12:33:54;;;;;;;3.97;1.20;;;;;;;;;;5069417;28;20056;-62
2022/04/24 12:36:20;;;;;;;3.55;1.80;;;;;;;;;;5069150;28;20036;-63
2022/04/24 12:38:57;;;;;;;2.30;1.40;;;;;;;;;;5069416;28;20051;-62
2022/04/24 12:41:30;;;;;;;3.28;1.80;;;;;;;;;;5068987;28;20190;-62
2022/04/24 12:44:00;;;;;;;1.70;1.02;;;;;;;;;;5068564;28;20135;-62
2022/04/24 12:46:29;;;;;;;4.53;0.82;;;;;;;;;;5070178;28;20083;-62
2022/04/24 12:48:56;;;;;;;2.95;1.27;;;;;;;;;;5069847;28;20076;-62
2022/04/24 12:51:23;;;;;;;4.13;1.70;;;;;;;;;;5068607;28;20508;-61
2022/04/24 12:53:50;;;;;;;3.20;1.55;;;;;;;;;;5068496;28;20062;-61
2022/04/24 12:56:16;;;;;;;4.07;1.65;;;;;;;;;;5068336;28;20041;-62
2022/04/24 12:58:42;;;;;;;4.55;1.80;;;;;;;;;;5070931;28;20529;-62
2022/04/24 13:01:11;;;;;;;4.82;1.75;;;;;;;;;;5069227;28;20510;-62
2022/04/24 13:03:39;;;;;;;2.70;1.65;;;;;;;;;;5069941;28;20139;-62
2022/04/24 13:06:05;;;;;;;4.47;1.75;;;;;;;;;;5060577;28;20044;-62
2022/04/24 13:08:31;;;;;;;4.40;1.75;;;;;;;;;;5068877;28;20048;-62
2022/04/24 13:10:57;;;;;;;4.32;1.67;;;;;;;;;;5069590;28;20068;-62
2022/04/24 13:13:23;;;;;;;3.15;1.80;;;;;;;;;;5066958;28;20048;-62
2022/04/24 13:18:34;;;;;;;3.47;1.42;;;;;;;;;;5062901;28;20045;-62
2022/04/24 13:21:00;;;;;;;3.03;1.30;;;;;;;;;;5084125;28;20094;-62
2022/04/24 13:23:26;;;;;;;2.95;1.77;;;;;;;;;;5069177;28;20052;-62
2022/04/24 13:25:53;;;;;;;11.52;1.88;;;;;;;;;;5067427;28;20036;-62
2022/04/24 13:28:20;;;;;;;2.33;1.27;;;;;;;;;;5068161;28;20044;-62
2022/04/24 13:30:47;;;;;;;3.55;1.90;;;;;;;;;;5068994;28;20058;-62
2022/04/24 13:33:17;;;;;;;4.15;2.10;;;;;;;;;;5068326;28;20044;-62
2022/04/24 13:35:43;;;;;;;3.95;2.00;;;;;;;;;;5069655;28;20044;-62
2022/04/24 13:38:18;;;;;;;4.15;1.50;;;;;;;;;;5066554;28;20044;-61
2022/04/24 13:40:45;;;;;;;7.75;1.73;;;;;;;;;;5068817;28;20494;-62
2022/04/24 13:43:12;;;;;;;4.88;1.75;;;;;;;;;;5062443;28;20049;-62
2022/04/24 13:45:38;;;;;;;4.00;2.10;;;;;;;;;;5082816;28;20064;-62
2022/04/24 13:48:05;;;;;;;5.55;2.00;;;;;;;;;;5067734;28;20128;-62
2022/04/24 13:50:31;;;;;;;2.67;1.80;;;;;;;;;;5068518;28;20052;-62
2022/04/24 13:52:58;;;;;;;3.38;1.90;;;;;;;;;;5067327;28;20040;-62
2022/04/24 13:55:24;;;;;;;3.97;1.80;;;;;;;;;;5067701;28;20087;-62
2022/04/24 13:57:50;;;;;;;3.45;2.00;;;;;;;;;;5067006;28;20033;-61
2022/04/24 14:00:16;;;;;;;5.70;2.10;;;;;;;;;;5059961;28;20777;-62
2022/04/24 14:02:42;;;;;;;4.20;2.30;;;;;;;;;;5068929;28;20041;-61
2022/04/24 14:05:11;;;;;;;7.63;2.30;;;;;;;;;;5067948;28;20123;-61
2022/04/24 14:07:37;;;;;;;3.63;2.10;;;;;;;;;;5068470;28;20070;-62
2022/04/24 14:10:03;;;;;;;3.70;2.03;;;;;;;;;;5068241;28;20698;-62
2022/04/24 14:12:29;;;;;;;4.90;2.30;;;;;;;;;;5059738;28;20071;-62
2022/04/24 14:14:55;;;;;;;2.88;2.10;;;;;;;;;;5066798;28;20110;-62
2022/04/24 14:17:21;;;;;;;3.72;2.03;;;;;;;;;;5067795;28;20098;-62
2022/04/24 14:19:47;;;;;;;5.72;2.40;;;;;;;;;;5067652;28;20036;-62
2022/04/24 14:22:13;;;;;;;2.97;1.90;;;;;;;;;;5067669;28;20044;-62
2022/04/24 14:24:39;;;;;;;3.15;2.03;;;;;;;;;;5063540;28;20041;-62
2022/04/24 14:27:05;;;;;;;3.70;1.85;;;;;;;;;;5067142;28;20044;-62
2022/04/24 14:29:31;;;;;;;4.22;2.75;;;;;;;;;;5059562;28;20517;-62
2022/04/24 14:31:57;;;;;;;6.00;2.15;;;;;;;;;;5066934;28;20123;-62
2022/04/24 14:34:25;;;;;;;3.03;1.85;;;;;;;;;;5067187;28;20044;-61
2022/04/24 14:36:51;;;;;;;4.60;2.22;;;;;;;;;;5067930;28;20057;-61
2022/04/24 14:39:17;;;;;;;4.43;2.40;;;;;;;;;;5067998;28;20052;-62
2022/04/24 14:41:43;;;;;;;3.97;1.90;;;;;;;;;;5064767;28;20095;-61
2022/04/24 14:44:09;;;;;;;3.75;2.42;;;;;;;;;;5067677;28;20441;-62